Pagrindinis puslapis
METAR-TAF:

METAR-TAF

Oro uostai :

Emmen, Šveicarija

platuma: 47-05-32N, ilguma: 8-18-16E, Aukštis: 426 m

Dabartinis oras

Ataskaita buvo paskelbta 38 minutes, ne 02:20 UTC
Vėjas 2 kt nuo kintamojo kryptimis
Temperatūra 5°C
Drėgmė 81%
Slėgis 1027 hPa
Matomumas 10 km arba daugiau
Mažai debesys ne aukštis 2200 ft
Išsisklaidę debesys ne aukštis 2900 ft
Su prošvaistėmis ne aukštis 4000 ft
lietus

METAR: LSME 180220Z AUTO VRB02KT 9999NDV -SHRA FEW022 SCT029 BKN040 05/02 Q1027 RMK

Laikas: 03:58 (02:58 UTC)


TAF: trūkstamas

Orai ataskaitas ir orų prognozės (METAR, TAF).

turimą stotys yra geltonos ir raudonos taškus žemėlapyje.

Perkelti pele per norėdami pamatyti stoties vardą.

Tada spustelėkite, norėdami matyti oro stebėjimo ir prognozės.

Norėdami pakeisti žemėlapį: spustelėkite ant žalios mygtukų su juodo kryžiaus žemyn,; žalią mygtuką su brūkšneliu, jei norite nutolinti; arba žalių rodyklių gretimoms žemėlapius.


METAR-TAF: